createdAt,value
2022-11-15T00:01:19.231Z,101034.00
2022-11-15T00:03:47.072Z,101041.00
2022-11-15T00:06:14.315Z,101044.00
2022-11-15T00:08:41.188Z,101043.00
2022-11-15T00:11:09.113Z,101053.00
2022-11-15T00:13:36.028Z,101051.00
2022-11-15T00:16:03.947Z,101050.00
2022-11-15T00:18:31.620Z,101045.00
2022-11-15T00:21:07.156Z,101030.00
2022-11-15T00:23:34.935Z,101025.00
2022-11-15T00:26:01.857Z,101027.00
2022-11-15T00:28:28.692Z,101020.00
2022-11-15T00:31:01.107Z,101018.00
2022-11-15T00:33:27.837Z,101012.00
2022-11-15T00:35:54.597Z,101033.00
2022-11-15T00:38:21.326Z,101014.00
2022-11-15T00:40:48.029Z,101012.00
2022-11-15T00:43:14.785Z,101020.00
2022-11-15T00:45:41.632Z,101010.00
2022-11-15T00:48:09.425Z,101008.00
2022-11-15T00:50:36.201Z,101002.00
2022-11-15T00:53:02.978Z,100997.00
2022-11-15T00:55:29.738Z,100989.00
2022-11-15T00:57:56.486Z,100999.00
2022-11-15T01:00:23.656Z,101002.00
2022-11-15T01:02:50.426Z,100992.00
2022-11-15T01:05:17.581Z,100996.00
2022-11-15T01:07:45.037Z,100992.00
2022-11-15T01:10:12.133Z,100992.00
2022-11-15T01:12:39.024Z,100991.00
2022-11-15T01:15:06.714Z,100990.00
2022-11-15T01:17:33.462Z,100990.00
2022-11-15T01:20:00.209Z,100995.00
2022-11-15T01:22:27.161Z,100987.00
2022-11-15T01:24:53.976Z,100988.00
2022-11-15T01:27:20.778Z,100988.00
2022-11-15T01:29:47.554Z,100985.00
2022-11-15T01:32:14.323Z,100977.00
2022-11-15T01:34:41.212Z,100975.00
2022-11-15T01:37:07.949Z,100966.00
2022-11-15T01:39:34.677Z,100963.00
2022-11-15T01:42:01.471Z,100964.00
2022-11-15T01:44:48.979Z,100961.00
2022-11-15T01:47:26.753Z,100958.00
2022-11-15T01:50:01.736Z,100949.00
2022-11-15T01:52:32.461Z,100944.00
2022-11-15T01:55:22.372Z,100937.00
2022-11-15T01:57:54.658Z,100918.00
2022-11-15T02:00:21.624Z,100935.00
2022-11-15T02:02:48.538Z,100931.00
2022-11-15T02:05:16.289Z,100935.00
2022-11-15T02:07:43.542Z,100920.00
2022-11-15T02:10:15.533Z,100920.00
2022-11-15T02:12:43.016Z,100916.00
2022-11-15T02:15:12.029Z,100920.00
2022-11-15T02:17:59.716Z,100920.00
2022-11-15T02:20:57.308Z,100918.00
2022-11-15T02:23:55.834Z,100928.00
2022-11-15T02:27:14.802Z,100932.00
2022-11-15T02:30:21.664Z,100926.00
2022-11-15T02:33:09.830Z,100925.00
2022-11-15T02:36:30.305Z,100924.00
2022-11-15T02:39:32.401Z,100933.00
2022-11-15T02:42:27.179Z,100927.00
2022-11-15T02:44:57.756Z,100926.00
2022-11-15T02:47:28.502Z,100909.00
2022-11-15T02:50:03.232Z,100916.00
2022-11-15T02:52:29.995Z,100907.00
2022-11-15T02:54:59.474Z,100904.00
2022-11-15T02:57:56.339Z,100910.00
2022-11-15T03:00:23.277Z,100900.00
2022-11-15T03:03:20.536Z,100906.00
2022-11-15T03:06:01.588Z,100904.00
2022-11-15T03:08:55.439Z,100900.00
2022-11-15T03:11:24.423Z,100890.00
2022-11-15T03:14:13.352Z,100909.00
2022-11-15T03:16:51.901Z,100899.00
2022-11-15T03:19:40.105Z,100904.00
2022-11-15T03:22:12.948Z,100902.00
2022-11-15T03:24:40.870Z,100902.00
2022-11-15T03:27:13.259Z,100900.00
2022-11-15T03:29:50.416Z,100908.00
2022-11-15T03:32:26.264Z,100903.00
2022-11-15T03:35:09.695Z,100898.00
2022-11-15T03:38:15.423Z,100899.00
2022-11-15T03:40:48.551Z,100900.00
2022-11-15T03:43:31.647Z,100892.00
2022-11-15T03:46:17.203Z,100901.00
2022-11-15T03:49:13.169Z,100885.00
2022-11-15T03:51:40.726Z,100885.00
2022-11-15T03:54:07.859Z,100887.00
2022-11-15T03:56:34.610Z,100891.00
2022-11-15T03:59:01.453Z,100887.00
2022-11-15T04:01:28.275Z,100894.00
2022-11-15T04:03:55.044Z,100879.00
2022-11-15T04:06:21.892Z,100881.00
2022-11-15T04:08:48.608Z,100884.00
2022-11-15T04:11:15.360Z,100873.00
2022-11-15T04:13:42.079Z,100881.00
2022-11-15T04:16:08.782Z,100877.00
2022-11-15T04:18:35.494Z,100880.00
2022-11-15T04:21:20.660Z,100871.00
2022-11-15T04:24:06.183Z,100877.00
2022-11-15T04:26:33.117Z,100867.00
2022-11-15T04:29:34.983Z,100876.00
2022-11-15T04:32:06.886Z,100874.00
2022-11-15T04:34:33.801Z,100879.00
2022-11-15T04:37:12.648Z,100876.00
2022-11-15T04:39:44.178Z,100872.00
2022-11-15T04:42:11.657Z,100867.00
2022-11-15T04:44:38.581Z,100870.00
2022-11-15T04:47:05.677Z,100869.00
2022-11-15T04:49:32.469Z,100863.00
2022-11-15T04:51:59.284Z,100870.00
2022-11-15T04:54:26.149Z,100867.00
2022-11-15T04:56:52.864Z,100867.00
2022-11-15T04:59:19.592Z,100853.00
2022-11-15T05:01:46.367Z,100854.00
2022-11-15T05:04:22.244Z,100862.00
2022-11-15T05:06:51.514Z,100863.00
2022-11-15T05:09:20.737Z,100850.00
2022-11-15T05:11:47.972Z,100854.00
2022-11-15T05:14:15.126Z,100856.00
2022-11-15T05:16:42.468Z,100854.00
2022-11-15T05:19:09.414Z,100860.00
2022-11-15T05:21:36.914Z,100858.00
2022-11-15T05:24:04.475Z,100847.00
2022-11-15T05:26:32.553Z,100851.00
2022-11-15T05:29:00.606Z,100862.00
2022-11-15T05:31:28.310Z,100862.00
2022-11-15T05:33:58.036Z,100856.00
2022-11-15T05:36:42.785Z,100851.00
2022-11-15T05:39:10.361Z,100847.00
2022-11-15T05:41:53.751Z,100860.00
2022-11-15T05:44:24.237Z,100855.00
2022-11-15T05:46:57.062Z,100853.00
2022-11-15T05:49:32.098Z,100853.00
2022-11-15T05:51:59.881Z,100862.00
2022-11-15T05:54:27.082Z,100859.00
2022-11-15T05:56:54.818Z,100868.00
2022-11-15T05:59:21.954Z,100863.00
2022-11-15T06:01:48.765Z,100851.00
2022-11-15T06:04:15.542Z,100866.00
2022-11-15T06:06:42.319Z,100866.00
2022-11-15T06:09:09.070Z,100864.00
2022-11-15T06:11:35.842Z,100862.00
2022-11-15T06:14:02.615Z,100858.00
2022-11-15T06:16:29.544Z,100862.00
2022-11-15T06:18:56.384Z,100873.00
2022-11-15T06:21:24.027Z,100872.00
2022-11-15T06:23:50.762Z,100863.00
2022-11-15T06:26:17.482Z,100865.00
2022-11-15T06:28:44.251Z,100881.00
2022-11-15T06:31:12.432Z,100873.00
2022-11-15T06:33:40.875Z,100879.00
2022-11-15T06:36:17.048Z,100871.00
2022-11-15T06:38:45.863Z,100877.00
2022-11-15T06:41:15.089Z,100878.00
2022-11-15T06:43:42.432Z,100871.00
2022-11-15T06:46:09.980Z,100876.00
2022-11-15T06:48:40.044Z,100879.00
2022-11-15T06:51:09.243Z,100889.00
2022-11-15T06:53:36.437Z,100881.00
2022-11-15T06:56:08.240Z,100877.00
2022-11-15T06:58:36.015Z,100883.00
2022-11-15T07:01:10.070Z,100884.00
2022-11-15T07:03:42.953Z,100882.00
2022-11-15T07:06:10.738Z,100891.00
2022-11-15T07:08:37.767Z,100876.00
2022-11-15T07:11:07.868Z,100884.00
2022-11-15T07:13:37.103Z,100889.00
2022-11-15T07:16:10.273Z,100896.00
2022-11-15T07:18:41.394Z,100893.00
2022-11-15T07:21:11.881Z,100898.00
2022-11-15T07:23:40.382Z,100900.00
2022-11-15T07:26:08.646Z,100903.00
2022-11-15T07:28:36.345Z,100908.00
2022-11-15T07:31:09.319Z,100903.00
2022-11-15T07:33:36.877Z,100904.00
2022-11-15T07:36:07.066Z,100898.00
2022-11-15T07:38:42.266Z,100905.00
2022-11-15T07:41:11.212Z,100901.00
2022-11-15T07:43:38.200Z,100903.00
2022-11-15T07:46:10.375Z,100894.00
2022-11-15T07:48:44.593Z,100904.00
2022-11-15T07:51:15.264Z,100901.00
2022-11-15T07:53:43.621Z,100885.00
2022-11-15T07:56:11.664Z,100894.00
2022-11-15T07:58:38.464Z,100901.00
2022-11-15T08:01:08.065Z,100899.00
2022-11-15T08:03:35.293Z,100898.00
2022-11-15T08:06:02.603Z,100895.00
2022-11-15T08:08:29.672Z,100889.00
2022-11-15T08:10:59.393Z,100884.00
2022-11-15T08:13:26.293Z,100881.00
2022-11-15T08:15:57.615Z,100871.00
2022-11-15T08:18:25.372Z,100879.00
2022-11-15T08:20:52.166Z,100881.00
2022-11-15T08:23:18.924Z,100881.00
2022-11-15T08:25:45.613Z,100875.00
2022-11-15T08:28:12.875Z,100881.00
2022-11-15T08:30:43.508Z,100876.00
2022-11-15T08:33:15.148Z,100881.00
2022-11-15T08:35:43.864Z,100878.00
2022-11-15T08:38:11.377Z,100873.00
2022-11-15T08:40:38.749Z,100866.00
2022-11-15T08:43:06.674Z,100872.00
2022-11-15T08:45:36.229Z,100873.00
2022-11-15T08:48:04.463Z,100867.00
2022-11-15T08:50:31.494Z,100861.00
2022-11-15T08:52:58.466Z,100871.00
2022-11-15T08:55:25.217Z,100874.00
2022-11-15T08:57:52.140Z,100874.00
2022-11-15T09:00:20.834Z,100872.00
2022-11-15T09:02:47.854Z,100874.00
2022-11-15T09:05:16.631Z,100879.00
2022-11-15T09:07:43.932Z,100882.00
2022-11-15T09:10:11.086Z,100883.00
2022-11-15T09:12:38.474Z,100891.00
2022-11-15T09:15:07.254Z,100888.00
2022-11-15T09:17:34.031Z,100877.00
2022-11-15T09:20:00.846Z,100883.00
2022-11-15T09:22:27.597Z,100880.00
2022-11-15T09:24:54.348Z,100868.00
2022-11-15T09:27:21.099Z,100868.00
2022-11-15T09:29:47.870Z,100880.00
2022-11-15T09:32:14.622Z,100875.00
2022-11-15T09:34:41.384Z,100883.00
2022-11-15T09:37:08.134Z,100862.00
2022-11-15T09:39:34.924Z,100880.00
2022-11-15T09:42:26.793Z,100877.00
2022-11-15T09:45:23.276Z,100884.00
2022-11-15T09:48:27.612Z,100885.00
2022-11-15T09:50:59.913Z,100883.00
2022-11-15T09:54:37.391Z,100884.00
2022-11-15T09:56:45.989Z,100871.00
2022-11-15T09:59:44.770Z,100866.00
2022-11-15T10:02:21.925Z,100852.00
2022-11-15T10:04:49.065Z,100857.00
2022-11-15T10:07:49.709Z,100859.00
2022-11-15T10:10:25.497Z,100863.00
2022-11-15T10:12:53.838Z,100852.00
2022-11-15T10:15:25.090Z,100853.00
2022-11-15T10:18:17.551Z,100853.00
2022-11-15T10:21:10.185Z,100832.00
2022-11-15T10:23:36.960Z,100835.00
2022-11-15T10:26:13.476Z,100827.00
2022-11-15T10:28:40.285Z,100823.00
2022-11-15T10:31:28.475Z,100816.00
2022-11-15T10:34:20.358Z,100820.00
2022-11-15T10:36:55.992Z,100819.00
2022-11-15T10:39:23.136Z,100815.00
2022-11-15T10:41:50.036Z,100805.00
2022-11-15T10:44:30.356Z,100797.00
2022-11-15T10:46:57.324Z,100799.00
2022-11-15T10:49:28.778Z,100791.00
2022-11-15T10:52:16.696Z,100787.00
2022-11-15T10:54:57.746Z,100786.00
2022-11-15T10:57:31.907Z,100781.00
2022-11-15T11:00:20.581Z,100782.00
2022-11-15T11:03:01.752Z,100785.00
2022-11-15T11:05:42.172Z,100784.00
2022-11-15T11:08:23.983Z,100771.00
2022-11-15T11:11:03.014Z,100771.00
2022-11-15T11:13:40.163Z,100756.00
2022-11-15T11:16:15.812Z,100755.00
2022-11-15T11:19:31.428Z,100760.00
2022-11-15T11:22:10.994Z,100763.00
2022-11-15T11:24:48.559Z,100761.00
2022-11-15T11:28:12.018Z,100762.00
2022-11-15T11:31:21.130Z,100754.00
2022-11-15T11:34:16.058Z,100754.00
2022-11-15T11:37:10.234Z,100739.00
2022-11-15T11:40:20.918Z,100748.00
2022-11-15T11:43:04.831Z,100746.00
2022-11-15T11:46:15.724Z,100754.00
2022-11-15T11:48:56.877Z,100752.00
2022-11-15T11:51:33.585Z,100760.00
2022-11-15T11:54:15.871Z,100744.00
2022-11-15T11:56:45.420Z,100752.00
2022-11-15T11:59:34.822Z,100739.00
2022-11-15T12:02:20.949Z,100733.00
2022-11-15T12:04:54.115Z,100736.00
2022-11-15T12:07:32.618Z,100734.00
2022-11-15T12:10:25.567Z,100735.00
2022-11-15T12:13:04.267Z,100729.00
2022-11-15T12:15:46.514Z,100720.00
2022-11-15T12:18:17.623Z,100720.00
2022-11-15T12:21:02.078Z,100723.00
2022-11-15T12:23:36.407Z,100720.00
2022-11-15T12:26:17.641Z,100717.00
2022-11-15T12:29:07.601Z,100716.00
2022-11-15T12:31:35.339Z,100715.00
2022-11-15T12:34:21.186Z,100704.00
2022-11-15T12:36:52.628Z,100709.00
2022-11-15T12:39:20.270Z,100715.00
2022-11-15T12:41:55.929Z,100702.00
2022-11-15T12:44:31.579Z,100703.00
2022-11-15T12:46:58.270Z,100691.00
2022-11-15T12:49:24.962Z,100686.00
2022-11-15T12:51:53.148Z,100687.00
2022-11-15T12:54:22.913Z,100692.00
2022-11-15T12:57:04.820Z,100682.00
2022-11-15T12:59:59.513Z,100687.00
2022-11-15T13:02:34.795Z,100676.00
2022-11-15T13:05:16.697Z,100672.00
2022-11-15T13:07:43.395Z,100677.00
2022-11-15T13:10:30.846Z,100673.00
2022-11-15T13:13:04.495Z,100672.00
2022-11-15T13:16:02.738Z,100664.00
2022-11-15T13:18:35.020Z,100661.00
2022-11-15T13:21:23.866Z,100660.00
2022-11-15T13:23:58.355Z,100663.00
2022-11-15T13:26:25.665Z,100666.00
2022-11-15T13:28:55.688Z,100657.00
2022-11-15T13:31:45.896Z,100651.00
2022-11-15T13:37:23.506Z,100652.00
2022-11-15T13:39:51.177Z,100655.00
2022-11-15T13:42:22.092Z,100652.00
2022-11-15T13:45:05.217Z,100659.00
2022-11-15T13:47:33.021Z,100663.00
2022-11-15T13:50:02.192Z,100655.00
2022-11-15T13:52:40.503Z,100652.00
2022-11-15T13:55:19.756Z,100649.00
2022-11-15T13:57:56.718Z,100656.00
2022-11-15T14:00:42.696Z,100647.00
2022-11-15T14:03:32.784Z,100649.00
2022-11-15T14:06:13.164Z,100652.00
2022-11-15T14:08:42.067Z,100646.00
2022-11-15T14:11:20.902Z,100655.00
2022-11-15T14:14:09.135Z,100659.00
2022-11-15T14:16:38.518Z,100663.00
2022-11-15T14:19:08.169Z,100674.00
2022-11-15T14:21:35.043Z,100665.00
2022-11-15T14:24:21.107Z,100663.00
2022-11-15T14:26:48.316Z,100670.00
2022-11-15T14:29:29.705Z,100664.00
2022-11-15T14:32:20.486Z,100661.00
2022-11-15T14:34:49.121Z,100655.00
2022-11-15T14:37:35.772Z,100648.00
2022-11-15T14:40:05.353Z,100652.00
2022-11-15T14:42:32.855Z,100644.00
2022-11-15T14:44:59.678Z,100646.00
2022-11-15T14:47:26.466Z,100634.00
2022-11-15T14:49:53.339Z,100644.00
2022-11-15T14:52:32.524Z,100639.00
2022-11-15T14:55:02.184Z,100637.00
2022-11-15T14:57:30.075Z,100628.00
2022-11-15T14:59:57.804Z,100627.00
2022-11-15T15:02:27.789Z,100630.00
2022-11-15T15:04:55.214Z,100625.00
2022-11-15T15:07:23.009Z,100625.00
2022-11-15T15:09:49.864Z,100614.00
2022-11-15T15:12:23.990Z,100611.00
2022-11-15T15:14:52.246Z,100614.00
2022-11-15T15:17:19.064Z,100611.00
2022-11-15T15:19:45.791Z,100627.00
2022-11-15T15:22:19.733Z,100630.00
2022-11-15T15:24:47.356Z,100622.00
2022-11-15T15:27:14.715Z,100621.00
2022-11-15T15:29:41.787Z,100615.00
2022-11-15T15:32:10.862Z,100616.00
2022-11-15T15:34:37.647Z,100610.00
2022-11-15T15:37:26.046Z,100606.00
2022-11-15T15:39:57.495Z,100618.00
2022-11-15T15:42:24.676Z,100614.00
2022-11-15T15:44:51.984Z,100615.00
2022-11-15T15:47:24.342Z,100604.00
2022-11-15T15:49:51.898Z,100609.00
2022-11-15T15:52:18.745Z,100607.00
2022-11-15T15:54:45.768Z,100611.00
2022-11-15T15:57:15.045Z,100602.00
2022-11-15T15:59:41.901Z,100604.00
2022-11-15T16:02:13.389Z,100603.00
2022-11-15T16:04:41.212Z,100597.00
2022-11-15T16:07:21.464Z,100605.00
2022-11-15T16:10:14.149Z,100599.00
2022-11-15T16:12:40.978Z,100593.00
2022-11-15T16:15:09.527Z,100597.00
2022-11-15T16:17:41.982Z,100591.00
2022-11-15T16:20:40.321Z,100601.00
2022-11-15T16:23:11.109Z,100581.00
2022-11-15T16:25:49.464Z,100581.00
2022-11-15T16:28:33.393Z,100578.00
2022-11-15T16:31:11.516Z,100582.00
2022-11-15T16:33:39.903Z,100587.00
2022-11-15T16:36:23.423Z,100587.00
2022-11-15T16:38:54.229Z,100571.00
2022-11-15T16:41:20.988Z,100575.00
2022-11-15T16:43:48.732Z,100581.00
2022-11-15T16:46:26.752Z,100581.00
2022-11-15T16:48:54.620Z,100567.00
2022-11-15T16:51:22.968Z,100574.00
2022-11-15T16:53:50.173Z,100581.00
2022-11-15T16:56:29.780Z,100574.00
2022-11-15T16:58:58.803Z,100583.00
2022-11-15T17:01:35.698Z,100568.00
2022-11-15T17:04:13.093Z,100573.00
2022-11-15T17:06:41.541Z,100569.00
2022-11-15T17:09:15.197Z,100567.00
2022-11-15T17:11:42.976Z,100570.00
2022-11-15T17:14:10.550Z,100556.00
2022-11-15T17:16:42.705Z,100570.00
2022-11-15T17:19:19.648Z,100560.00
2022-11-15T17:21:49.468Z,100574.00
2022-11-15T17:24:17.242Z,100564.00
2022-11-15T17:26:44.140Z,100566.00
2022-11-15T17:29:11.021Z,100569.00
2022-11-15T17:31:38.809Z,100557.00
2022-11-15T17:34:07.201Z,100553.00
2022-11-15T17:36:35.386Z,100558.00
2022-11-15T17:39:04.069Z,100560.00
2022-11-15T17:41:31.065Z,100561.00
2022-11-15T17:44:00.387Z,100560.00
2022-11-15T17:46:28.994Z,100567.00
2022-11-15T17:48:57.645Z,100548.00
2022-11-15T17:51:25.423Z,100562.00
2022-11-15T17:53:53.024Z,100559.00
2022-11-15T17:56:23.916Z,100558.00
2022-11-15T17:58:55.614Z,100554.00
2022-11-15T18:01:32.124Z,100555.00
2022-11-15T18:04:01.983Z,100553.00
2022-11-15T18:06:33.271Z,100556.00
2022-11-15T18:09:00.369Z,100553.00
2022-11-15T18:11:38.543Z,100539.00
2022-11-15T18:14:13.496Z,100549.00
2022-11-15T18:16:40.899Z,100553.00
2022-11-15T18:19:12.927Z,100547.00
2022-11-15T18:21:59.300Z,100546.00
2022-11-15T18:24:35.237Z,100541.00
2022-11-15T18:27:04.926Z,100538.00
2022-11-15T18:29:33.327Z,100540.00
2022-11-15T18:32:00.409Z,100533.00
2022-11-15T18:34:32.020Z,100534.00
2022-11-15T18:37:03.357Z,100521.00
2022-11-15T18:39:30.610Z,100517.00
2022-11-15T18:41:58.089Z,100524.00
2022-11-15T18:44:24.911Z,100532.00
2022-11-15T18:46:51.706Z,100537.00
2022-11-15T18:49:20.251Z,100536.00
2022-11-15T18:51:47.651Z,100528.00
2022-11-15T18:54:16.544Z,100529.00
2022-11-15T18:56:46.869Z,100523.00
2022-11-15T18:59:14.228Z,100526.00
2022-11-15T19:01:48.220Z,100521.00
2022-11-15T19:04:19.075Z,100533.00
2022-11-15T19:06:49.862Z,100530.00
2022-11-15T19:09:19.195Z,100527.00
2022-11-15T19:11:48.442Z,100519.00
2022-11-15T19:14:17.910Z,100519.00
2022-11-15T19:16:52.319Z,100523.00
2022-11-15T19:19:25.871Z,100526.00
2022-11-15T19:21:53.341Z,100517.00
2022-11-15T19:24:20.401Z,100525.00
2022-11-15T19:26:47.247Z,100516.00
2022-11-15T19:29:18.261Z,100518.00
2022-11-15T19:31:45.439Z,100528.00
2022-11-15T19:34:12.928Z,100514.00
2022-11-15T19:36:44.568Z,100519.00
2022-11-15T19:39:14.068Z,100514.00
2022-11-15T19:41:43.503Z,100515.00
2022-11-15T19:44:12.752Z,100506.00
2022-11-15T19:46:40.704Z,100513.00
2022-11-15T19:49:10.655Z,100516.00
2022-11-15T19:51:39.528Z,100519.00
2022-11-15T19:54:08.853Z,100517.00
2022-11-15T19:56:36.389Z,100522.00
2022-11-15T19:59:04.589Z,100532.00
2022-11-15T20:01:36.282Z,100535.00
2022-11-15T20:04:03.945Z,100521.00
2022-11-15T20:06:39.290Z,100522.00
2022-11-15T20:09:06.302Z,100523.00
2022-11-15T20:11:34.185Z,100537.00
2022-11-15T20:14:02.309Z,100526.00
2022-11-15T20:16:29.942Z,100522.00
2022-11-15T20:18:56.888Z,100524.00
2022-11-15T20:21:23.827Z,100522.00
2022-11-15T20:23:51.800Z,100519.00
2022-11-15T20:26:20.637Z,100515.00
2022-11-15T20:28:48.525Z,100506.00
2022-11-15T20:31:16.469Z,100514.00
2022-11-15T20:33:43.271Z,100509.00
2022-11-15T20:36:15.934Z,100506.00
2022-11-15T20:38:44.448Z,100495.00
2022-11-15T20:41:12.785Z,100517.00
2022-11-15T20:43:43.287Z,100517.00
2022-11-15T20:46:12.434Z,100517.00
2022-11-15T20:48:40.749Z,100515.00
2022-11-15T20:51:15.281Z,100509.00
2022-11-15T20:53:44.126Z,100522.00
2022-11-15T20:56:16.072Z,100511.00
2022-11-15T20:58:47.627Z,100514.00
2022-11-15T21:01:17.828Z,100515.00
2022-11-15T21:03:44.777Z,100510.00
2022-11-15T21:06:11.976Z,100509.00
2022-11-15T21:08:57.541Z,100508.00
2022-11-15T21:11:43.533Z,100501.00
2022-11-15T21:14:10.533Z,100501.00
2022-11-15T21:16:38.902Z,100505.00
2022-11-15T21:19:06.804Z,100498.00
2022-11-15T21:21:35.361Z,100506.00
2022-11-15T21:24:07.955Z,100515.00
2022-11-15T21:26:36.206Z,100500.00
2022-11-15T21:29:04.057Z,100499.00
2022-11-15T21:31:32.005Z,100495.00
2022-11-15T21:34:03.216Z,100496.00
2022-11-15T21:36:30.669Z,100506.00
2022-11-15T21:38:57.445Z,100505.00
2022-11-15T21:41:24.392Z,100502.00
2022-11-15T21:43:51.268Z,100489.00
2022-11-15T21:46:18.287Z,100488.00
2022-11-15T21:48:45.070Z,100497.00
2022-11-15T21:51:12.425Z,100491.00
2022-11-15T21:53:39.309Z,100481.00
2022-11-15T21:56:06.882Z,100483.00
2022-11-15T21:58:34.301Z,100491.00
2022-11-15T22:01:20.433Z,100495.00
2022-11-15T22:03:47.276Z,100491.00
2022-11-15T22:06:17.756Z,100485.00
2022-11-15T22:08:46.443Z,100488.00
2022-11-15T22:11:14.824Z,100473.00
2022-11-15T22:13:42.509Z,100476.00
2022-11-15T22:16:10.257Z,100474.00
2022-11-15T22:18:38.143Z,100475.00
2022-11-15T22:21:13.083Z,100477.00
2022-11-15T22:23:41.389Z,100473.00
2022-11-15T22:26:12.851Z,100471.00
2022-11-15T22:28:39.668Z,100471.00
2022-11-15T22:31:06.492Z,100476.00
2022-11-15T22:33:35.361Z,100466.00
2022-11-15T22:36:04.761Z,100466.00
2022-11-15T22:38:32.211Z,100462.00
2022-11-15T22:41:00.176Z,100463.00
2022-11-15T22:43:27.588Z,100466.00
2022-11-15T22:45:57.186Z,100458.00
2022-11-15T22:48:34.144Z,100452.00
2022-11-15T22:51:02.051Z,100457.00
2022-11-15T22:53:29.940Z,100447.00
2022-11-15T22:56:00.394Z,100451.00
2022-11-15T22:58:30.350Z,100442.00
2022-11-15T23:01:01.137Z,100436.00
2022-11-15T23:03:29.552Z,100435.00
2022-11-15T23:06:06.235Z,100432.00
2022-11-15T23:08:33.665Z,100431.00
2022-11-15T23:11:21.838Z,100424.00
2022-11-15T23:13:52.217Z,100424.00
2022-11-15T23:16:45.231Z,100421.00
2022-11-15T23:19:13.013Z,100421.00
2022-11-15T23:22:01.912Z,100416.00
2022-11-15T23:24:29.868Z,100417.00
2022-11-15T23:27:07.415Z,100412.00
2022-11-15T23:29:54.609Z,100413.00
2022-11-15T23:32:39.973Z,100412.00
2022-11-15T23:35:07.349Z,100412.00
2022-11-15T23:37:34.158Z,100417.00
2022-11-15T23:40:01.284Z,100420.00
2022-11-15T23:42:28.127Z,100409.00
2022-11-15T23:44:54.884Z,100415.00
2022-11-15T23:47:21.758Z,100417.00
2022-11-15T23:49:48.708Z,100404.00
2022-11-15T23:52:16.356Z,100406.00
2022-11-15T23:54:43.523Z,100413.00
2022-11-15T23:57:12.040Z,100400.00
2022-11-15T23:59:43.787Z,100401.00
